createdAt,value
2019-03-05T00:01:52.329Z,4.20
2019-03-05T00:04:40.232Z,4.10
2019-03-05T00:07:27.833Z,4.00
2019-03-05T00:10:16.118Z,3.90
2019-03-05T00:13:03.806Z,3.90
2019-03-05T00:15:52.836Z,3.80
2019-03-05T00:18:40.530Z,3.80
2019-03-05T00:21:28.158Z,3.80
2019-03-05T00:24:52.467Z,3.90
2019-03-05T00:27:53.780Z,3.90
2019-03-05T00:31:00.278Z,3.90
2019-03-05T00:34:06.464Z,4.00
2019-03-05T00:37:21.306Z,4.10
2019-03-05T00:40:55.818Z,4.10
2019-03-05T00:44:04.691Z,4.10
2019-03-05T00:47:39.993Z,4.10
2019-03-05T00:51:27.533Z,4.20
2019-03-05T00:54:41.765Z,4.10
2019-03-05T00:58:15.186Z,4.00
2019-03-05T01:01:12.201Z,3.90
2019-03-05T01:04:42.933Z,3.90
2019-03-05T01:07:31.339Z,3.80
2019-03-05T01:10:20.405Z,3.70
2019-03-05T01:13:08.997Z,3.50
2019-03-05T01:15:56.534Z,3.50
2019-03-05T01:18:44.211Z,3.40
2019-03-05T01:21:31.684Z,3.40
2019-03-05T01:24:19.949Z,3.40
2019-03-05T01:27:07.918Z,3.40
2019-03-05T01:29:55.851Z,3.30
2019-03-05T01:32:50.794Z,3.30
2019-03-05T01:35:47.158Z,3.30
2019-03-05T01:38:44.152Z,3.20
2019-03-05T01:41:31.859Z,3.20
2019-03-05T01:44:19.847Z,3.20
2019-03-05T01:47:07.363Z,3.20
2019-03-05T01:49:55.369Z,3.30
2019-03-05T01:52:43.414Z,3.20
2019-03-05T01:55:30.850Z,3.20
2019-03-05T01:58:18.521Z,3.10
2019-03-05T02:01:06.749Z,3.10
2019-03-05T02:03:54.369Z,3.10
2019-03-05T02:06:42.659Z,3.10
2019-03-05T02:09:30.067Z,3.00
2019-03-05T02:12:18.236Z,2.90
2019-03-05T02:15:06.360Z,2.90
2019-03-05T02:17:54.033Z,3.00
2019-03-05T02:20:41.829Z,3.00
2019-03-05T02:23:43.534Z,3.10
2019-03-05T02:27:36.770Z,3.20
2019-03-05T02:30:46.372Z,3.20
2019-03-05T02:33:46.881Z,3.20
2019-03-05T02:37:08.949Z,3.20
2019-03-05T02:40:43.926Z,3.20
2019-03-05T02:43:57.759Z,3.10
2019-03-05T02:47:29.771Z,3.10
2019-03-05T02:50:56.438Z,3.00
2019-03-05T02:54:21.384Z,3.00
2019-03-05T02:57:08.323Z,2.90
2019-03-05T02:59:56.436Z,2.80
2019-03-05T03:02:49.761Z,2.80
2019-03-05T03:05:44.750Z,2.80
2019-03-05T03:08:32.395Z,2.70
2019-03-05T03:11:19.847Z,2.60
2019-03-05T03:14:07.727Z,2.50
2019-03-05T03:16:55.452Z,2.50
2019-03-05T03:19:43.585Z,2.50
2019-03-05T03:22:31.424Z,2.60
2019-03-05T03:25:20.409Z,2.60
2019-03-05T03:28:07.871Z,2.60
2019-03-05T03:30:55.706Z,2.70
2019-03-05T03:33:43.654Z,2.70
2019-03-05T03:36:31.274Z,2.70
2019-03-05T03:39:18.953Z,2.70
2019-03-05T03:42:06.411Z,2.80
2019-03-05T03:44:54.204Z,2.80
2019-03-05T03:47:42.126Z,2.90
2019-03-05T03:50:29.503Z,3.00
2019-03-05T03:53:17.697Z,3.10
2019-03-05T03:56:05.317Z,3.10
2019-03-05T03:58:53.030Z,3.20
2019-03-05T04:01:40.517Z,3.30
2019-03-05T04:04:28.301Z,3.40
2019-03-05T04:07:16.251Z,3.50
2019-03-05T04:10:04.752Z,3.60
2019-03-05T04:12:52.170Z,3.60
2019-03-05T04:15:40.174Z,3.70
2019-03-05T04:18:28.212Z,3.70
2019-03-05T04:21:19.914Z,3.80
2019-03-05T04:24:05.928Z,3.70
2019-03-05T04:26:53.797Z,3.80
2019-03-05T04:29:41.532Z,3.80
2019-03-05T04:32:28.883Z,3.80
2019-03-05T04:35:16.265Z,3.90
2019-03-05T04:38:04.356Z,3.90
2019-03-05T04:40:51.697Z,3.90
2019-03-05T04:43:39.488Z,3.90
2019-03-05T04:46:34.411Z,3.90
2019-03-05T04:49:36.938Z,4.00
2019-03-05T04:52:28.408Z,4.00
2019-03-05T04:55:16.295Z,4.10
2019-03-05T04:58:03.812Z,4.20
2019-03-05T05:00:51.545Z,4.30
2019-03-05T05:03:39.593Z,4.40
2019-03-05T05:06:27.361Z,4.40
2019-03-05T05:09:15.078Z,4.50
2019-03-05T05:12:02.707Z,4.50
2019-03-05T05:14:50.308Z,4.50
2019-03-05T05:17:37.847Z,4.50
2019-03-05T05:20:25.432Z,4.60
2019-03-05T05:23:13.100Z,4.60
2019-03-05T05:26:01.250Z,4.70
2019-03-05T05:28:49.093Z,4.70
2019-03-05T05:31:36.932Z,4.70
2019-03-05T05:34:24.949Z,4.70
2019-03-05T05:37:12.444Z,4.80
2019-03-05T05:40:27.784Z,4.80
2019-03-05T05:43:18.204Z,4.80
2019-03-05T05:46:06.061Z,4.80
2019-03-05T05:48:53.465Z,4.70
2019-03-05T05:51:41.208Z,4.60
2019-03-05T05:54:28.888Z,4.60
2019-03-05T05:57:16.685Z,4.60
2019-03-05T06:00:04.645Z,4.60
2019-03-05T06:02:52.271Z,4.60
2019-03-05T06:05:40.035Z,4.60
2019-03-05T06:08:28.614Z,4.60
2019-03-05T06:11:16.797Z,4.60
2019-03-05T06:14:04.492Z,4.50
2019-03-05T06:16:51.787Z,4.50
2019-03-05T06:19:39.510Z,4.40
2019-03-05T06:22:27.534Z,4.50
2019-03-05T06:25:15.324Z,4.40
2019-03-05T06:28:02.993Z,4.40
2019-03-05T06:30:50.847Z,4.30
2019-03-05T06:33:38.658Z,4.30
2019-03-05T06:36:26.225Z,4.20
2019-03-05T06:39:14.078Z,4.20
2019-03-05T06:42:01.474Z,4.10
2019-03-05T06:44:49.142Z,4.00
2019-03-05T06:47:36.945Z,3.90
2019-03-05T06:50:25.023Z,3.90
2019-03-05T06:53:12.613Z,3.80
2019-03-05T06:55:59.916Z,3.70
2019-03-05T06:58:47.660Z,3.70
2019-03-05T07:01:35.410Z,3.60
2019-03-05T07:04:22.922Z,3.60
2019-03-05T07:07:10.438Z,3.60
2019-03-05T07:10:22.371Z,3.60
2019-03-05T07:13:18.912Z,3.60
2019-03-05T07:16:29.189Z,3.70
2019-03-05T07:19:32.441Z,3.70
2019-03-05T07:22:34.327Z,3.80
2019-03-05T07:25:21.937Z,3.90
2019-03-05T07:28:09.420Z,4.00
2019-03-05T07:30:57.097Z,4.10
2019-03-05T07:33:44.819Z,4.10
2019-03-05T07:36:32.845Z,4.10
2019-03-05T07:39:22.925Z,4.20
2019-03-05T07:42:10.860Z,4.30
2019-03-05T07:44:58.558Z,4.40
2019-03-05T07:47:46.509Z,4.50
2019-03-05T07:50:34.307Z,4.70
2019-03-05T07:53:22.422Z,4.90
2019-03-05T07:56:10.365Z,5.10
2019-03-05T07:58:57.981Z,5.30
2019-03-05T08:01:46.016Z,5.60
2019-03-05T08:04:33.917Z,5.80
2019-03-05T08:07:21.560Z,6.00
2019-03-05T08:10:15.384Z,6.10
2019-03-05T08:13:13.388Z,6.30
2019-03-05T08:16:27.640Z,6.50
2019-03-05T08:19:15.249Z,6.70
2019-03-05T08:22:04.492Z,6.90
2019-03-05T08:24:52.898Z,6.90
2019-03-05T08:27:40.269Z,6.70
2019-03-05T08:30:27.885Z,6.60
2019-03-05T08:33:15.753Z,6.50
2019-03-05T08:36:04.211Z,6.40
2019-03-05T08:38:52.327Z,6.40
2019-03-05T08:41:40.354Z,6.50
2019-03-05T08:44:28.715Z,6.70
2019-03-05T08:47:16.472Z,6.80
2019-03-05T08:50:04.502Z,6.90
2019-03-05T08:52:51.872Z,7.10
2019-03-05T08:55:39.426Z,7.00
2019-03-05T08:58:27.356Z,7.10
2019-03-05T09:01:15.746Z,7.20
2019-03-05T09:04:03.330Z,7.40
2019-03-05T09:06:51.336Z,7.40
2019-03-05T09:09:38.973Z,7.30
2019-03-05T09:12:26.714Z,7.30
2019-03-05T09:15:15.830Z,7.10
2019-03-05T09:18:03.704Z,7.10
2019-03-05T09:20:51.096Z,7.10
2019-03-05T09:23:39.177Z,7.00
2019-03-05T09:26:26.782Z,6.90
2019-03-05T09:29:14.435Z,6.90
2019-03-05T09:32:02.004Z,6.90
2019-03-05T09:34:49.821Z,7.10
2019-03-05T09:37:37.824Z,7.20
2019-03-05T09:40:26.007Z,7.20
2019-03-05T09:43:13.787Z,7.40
2019-03-05T09:46:01.236Z,7.40
2019-03-05T09:48:49.085Z,7.60
2019-03-05T09:51:36.544Z,7.80
2019-03-05T09:54:24.566Z,7.90
2019-03-05T09:57:12.172Z,7.90
2019-03-05T09:59:59.730Z,8.10
2019-03-05T10:02:47.451Z,8.20
2019-03-05T10:05:35.492Z,8.50
2019-03-05T10:08:32.140Z,8.40
2019-03-05T10:11:13.550Z,8.50
2019-03-05T10:14:01.255Z,8.50
2019-03-05T10:16:48.992Z,8.60
2019-03-05T10:19:38.463Z,8.50
2019-03-05T10:22:26.130Z,8.40
2019-03-05T10:25:16.114Z,8.40
2019-03-05T10:28:04.844Z,8.50
2019-03-05T10:30:52.305Z,8.70
2019-03-05T10:33:40.334Z,8.80
2019-03-05T10:36:27.714Z,8.90
2019-03-05T10:39:30.396Z,8.90
2019-03-05T10:42:15.819Z,9.10
2019-03-05T10:45:04.693Z,9.20
2019-03-05T10:47:53.249Z,9.30
2019-03-05T10:50:41.276Z,9.20
2019-03-05T10:53:29.267Z,9.40
2019-03-05T10:56:17.060Z,9.50
2019-03-05T10:59:05.525Z,9.80
2019-03-05T11:01:53.643Z,9.90
2019-03-05T11:04:45.692Z,9.80
2019-03-05T11:07:30.771Z,9.90
2019-03-05T11:10:19.014Z,9.70
2019-03-05T11:13:07.501Z,9.90
2019-03-05T11:15:56.393Z,10.00
2019-03-05T11:18:43.969Z,9.90
2019-03-05T11:21:31.407Z,9.80
2019-03-05T11:24:19.015Z,9.70
2019-03-05T11:27:06.521Z,9.70
2019-03-05T11:29:54.764Z,9.70
2019-03-05T11:32:43.080Z,9.70
2019-03-05T11:35:31.780Z,9.70
2019-03-05T11:38:19.962Z,9.70
2019-03-05T11:41:07.746Z,9.70
2019-03-05T11:43:55.220Z,9.60
2019-03-05T11:46:43.396Z,9.80
2019-03-05T11:49:31.034Z,9.90
2019-03-05T11:52:18.622Z,9.90
2019-03-05T11:55:07.774Z,9.90
2019-03-05T11:57:55.270Z,9.80
2019-03-05T12:01:08.057Z,9.90
2019-03-05T12:03:55.446Z,9.80
2019-03-05T12:06:43.120Z,9.60
2019-03-05T12:09:30.698Z,9.50
2019-03-05T12:12:18.444Z,9.50
2019-03-05T12:15:09.478Z,9.60
2019-03-05T12:17:57.650Z,9.60
2019-03-05T12:20:45.407Z,9.60
2019-03-05T12:23:33.666Z,9.60
2019-03-05T12:26:20.945Z,9.60
2019-03-05T12:29:08.477Z,9.50
2019-03-05T12:31:56.006Z,9.70
2019-03-05T12:34:43.926Z,9.80
2019-03-05T12:37:31.719Z,9.90
2019-03-05T12:40:19.605Z,10.00
2019-03-05T12:43:07.395Z,9.90
2019-03-05T12:45:54.880Z,9.90
2019-03-05T12:48:43.021Z,9.80
2019-03-05T12:51:30.800Z,10.00
2019-03-05T12:54:18.066Z,10.30
2019-03-05T12:57:06.039Z,10.40
2019-03-05T12:59:54.045Z,10.40
2019-03-05T13:02:42.114Z,10.20
2019-03-05T13:05:29.436Z,10.30
2019-03-05T13:08:16.758Z,10.40
2019-03-05T13:11:04.237Z,10.40
2019-03-05T13:14:05.435Z,10.10
2019-03-05T13:16:41.301Z,10.10
2019-03-05T13:19:28.951Z,10.10
2019-03-05T13:22:16.931Z,10.10
2019-03-05T13:25:04.961Z,10.20
2019-03-05T13:27:53.073Z,10.20
2019-03-05T13:30:41.036Z,10.20
2019-03-05T13:33:28.904Z,10.20
2019-03-05T13:36:16.989Z,10.20
2019-03-05T13:39:05.965Z,10.30
2019-03-05T13:41:53.808Z,10.30
2019-03-05T13:44:42.221Z,10.40
2019-03-05T13:47:29.684Z,10.40
2019-03-05T13:51:10.647Z,10.30
2019-03-05T13:54:28.506Z,10.30
2019-03-05T13:58:06.872Z,10.30
2019-03-05T14:00:54.699Z,10.20
2019-03-05T14:03:51.322Z,10.20
2019-03-05T14:07:02.424Z,10.20
2019-03-05T14:09:51.804Z,10.50
2019-03-05T14:12:39.439Z,10.70
2019-03-05T14:15:27.363Z,10.80
2019-03-05T14:18:15.576Z,10.80
2019-03-05T14:21:04.008Z,10.90
2019-03-05T14:23:52.182Z,10.80
2019-03-05T14:26:39.904Z,10.80
2019-03-05T14:29:29.362Z,10.80
2019-03-05T14:32:17.223Z,10.70
2019-03-05T14:35:17.544Z,10.70
2019-03-05T14:38:05.460Z,10.60
2019-03-05T14:40:53.685Z,10.40
2019-03-05T14:43:41.757Z,10.40
2019-03-05T14:46:29.754Z,10.30
2019-03-05T14:49:17.768Z,10.20
2019-03-05T14:52:06.506Z,10.10
2019-03-05T14:54:54.754Z,10.10
2019-03-05T14:57:42.451Z,10.00
2019-03-05T15:00:30.170Z,9.90
2019-03-05T15:03:18.071Z,9.80
2019-03-05T15:06:06.082Z,9.70
2019-03-05T15:08:53.914Z,9.60
2019-03-05T15:11:41.482Z,9.60
2019-03-05T15:14:29.612Z,9.40
2019-03-05T15:17:17.161Z,9.20
2019-03-05T15:20:05.620Z,9.00
2019-03-05T15:22:53.501Z,9.00
2019-03-05T15:25:41.705Z,9.00
2019-03-05T15:28:29.585Z,8.90
2019-03-05T15:31:17.624Z,8.80
2019-03-05T15:34:05.210Z,8.80
2019-03-05T15:36:52.986Z,8.80
2019-03-05T15:39:41.331Z,8.80
2019-03-05T15:42:29.412Z,8.70
2019-03-05T15:45:17.685Z,8.60
2019-03-05T15:48:05.744Z,8.60
2019-03-05T15:50:53.260Z,8.50
2019-03-05T15:53:41.782Z,8.40
2019-03-05T15:56:29.671Z,8.40
2019-03-05T15:59:17.316Z,8.30
2019-03-05T16:02:05.474Z,8.20
2019-03-05T16:04:52.669Z,8.30
2019-03-05T16:07:43.941Z,8.30
2019-03-05T16:10:29.880Z,8.10
2019-03-05T16:13:19.417Z,8.10
2019-03-05T16:16:06.906Z,8.10
2019-03-05T16:18:54.415Z,8.10
2019-03-05T16:21:42.840Z,8.10
2019-03-05T16:24:33.963Z,8.00
2019-03-05T16:27:20.242Z,7.90
2019-03-05T16:30:15.889Z,7.80
2019-03-05T16:33:23.819Z,7.80
2019-03-05T16:36:33.336Z,7.50
2019-03-05T16:39:42.810Z,7.50
2019-03-05T16:42:48.578Z,7.40
2019-03-05T16:46:00.950Z,7.40
2019-03-05T16:49:06.536Z,7.40
2019-03-05T16:52:04.315Z,7.30
2019-03-05T16:55:15.352Z,7.40
2019-03-05T16:58:15.328Z,7.30
2019-03-05T17:01:16.359Z,7.30
2019-03-05T17:04:23.297Z,7.20
2019-03-05T17:07:21.493Z,7.20
2019-03-05T17:10:30.090Z,7.20
2019-03-05T17:13:18.239Z,7.20
2019-03-05T17:16:06.069Z,7.20
2019-03-05T17:18:53.926Z,7.10
2019-03-05T17:21:41.541Z,6.90
2019-03-05T17:24:29.446Z,6.80
2019-03-05T17:27:17.452Z,6.80
2019-03-05T17:30:10.472Z,6.80
2019-03-05T17:32:58.269Z,6.70
2019-03-05T17:35:46.086Z,6.70
2019-03-05T17:38:33.944Z,6.70
2019-03-05T17:41:21.558Z,6.70
2019-03-05T17:44:09.470Z,6.60
2019-03-05T17:46:57.615Z,6.60
2019-03-05T17:49:45.232Z,6.60
2019-03-05T17:52:33.022Z,6.60
2019-03-05T17:55:24.648Z,6.60
2019-03-05T17:58:10.656Z,6.60
2019-03-05T18:00:58.278Z,6.60
2019-03-05T18:03:46.166Z,6.50
2019-03-05T18:06:34.025Z,6.60
2019-03-05T18:09:21.698Z,6.60
2019-03-05T18:12:09.378Z,6.60
2019-03-05T18:14:57.438Z,6.60
2019-03-05T18:17:44.909Z,6.60
2019-03-05T18:20:32.655Z,6.60
2019-03-05T18:23:20.121Z,6.70
2019-03-05T18:26:08.150Z,6.70
2019-03-05T18:28:56.320Z,6.80
2019-03-05T18:31:43.748Z,6.80
2019-03-05T18:34:31.256Z,6.90
2019-03-05T18:37:19.102Z,6.90
2019-03-05T18:40:08.185Z,6.90
2019-03-05T18:42:55.777Z,6.90
2019-03-05T18:45:43.292Z,6.90
2019-03-05T18:48:31.011Z,6.90
2019-03-05T18:51:19.490Z,6.90
2019-03-05T18:54:07.442Z,6.90
2019-03-05T18:56:55.720Z,6.90
2019-03-05T18:59:43.135Z,6.90
2019-03-05T19:02:30.928Z,6.90
2019-03-05T19:05:18.735Z,6.90
2019-03-05T19:08:06.630Z,7.00
2019-03-05T19:10:54.417Z,7.00
2019-03-05T19:13:42.183Z,7.00
2019-03-05T19:16:30.177Z,7.10
2019-03-05T19:19:18.134Z,7.10
2019-03-05T19:22:05.771Z,7.20
2019-03-05T19:24:53.531Z,7.20
2019-03-05T19:27:41.228Z,7.20
2019-03-05T19:30:31.460Z,7.20
2019-03-05T19:33:19.837Z,7.30
2019-03-05T19:36:07.829Z,7.30
2019-03-05T19:38:55.542Z,7.40
2019-03-05T19:41:43.563Z,7.40
2019-03-05T19:44:31.013Z,7.50
2019-03-05T19:47:19.033Z,7.60
2019-03-05T19:50:08.457Z,7.60
2019-03-05T19:52:56.484Z,7.60
2019-03-05T19:55:43.901Z,7.60
2019-03-05T19:58:31.905Z,7.50
2019-03-05T20:01:31.884Z,7.60
2019-03-05T20:04:20.088Z,7.40
2019-03-05T20:07:08.336Z,7.40
2019-03-05T20:09:56.462Z,7.30
2019-03-05T20:12:44.597Z,7.20
2019-03-05T20:15:32.489Z,7.00
2019-03-05T20:18:20.529Z,6.90
2019-03-05T20:21:09.553Z,6.80
2019-03-05T20:23:57.481Z,6.70
2019-03-05T20:26:49.318Z,6.60
2019-03-05T20:29:37.028Z,6.50
2019-03-05T20:32:25.133Z,6.40
2019-03-05T20:35:13.165Z,6.50
2019-03-05T20:38:00.492Z,6.60
2019-03-05T20:40:49.070Z,6.60
2019-03-05T20:43:36.681Z,6.50
2019-03-05T20:46:26.160Z,6.50
2019-03-05T20:49:13.933Z,6.50
2019-03-05T20:52:01.511Z,6.40
2019-03-05T20:54:49.384Z,6.40
2019-03-05T20:57:38.061Z,6.40
2019-03-05T21:00:27.839Z,6.40
2019-03-05T21:03:15.745Z,6.40
2019-03-05T21:06:03.943Z,6.40
2019-03-05T21:08:51.791Z,6.40
2019-03-05T21:11:39.632Z,6.40
2019-03-05T21:14:27.164Z,6.40
2019-03-05T21:17:14.773Z,6.40
2019-03-05T21:20:02.779Z,6.40
2019-03-05T21:22:50.860Z,6.40
2019-03-05T21:25:38.436Z,6.40
2019-03-05T21:28:26.673Z,6.40
2019-03-05T21:31:14.756Z,6.40
2019-03-05T21:34:02.945Z,6.40
2019-03-05T21:36:50.845Z,6.40
2019-03-05T21:39:38.888Z,6.40
2019-03-05T21:42:28.930Z,6.40
2019-03-05T21:45:39.088Z,6.40
2019-03-05T21:48:27.498Z,6.40
2019-03-05T21:51:14.922Z,6.40
2019-03-05T21:54:02.698Z,6.40
2019-03-05T21:56:50.534Z,6.40
2019-03-05T21:59:43.589Z,6.40
2019-03-05T22:02:31.773Z,6.40
2019-03-05T22:05:26.296Z,6.30
2019-03-05T22:08:17.088Z,6.30
2019-03-05T22:11:07.908Z,6.30
2019-03-05T22:14:01.144Z,6.30
2019-03-05T22:16:50.792Z,6.30
2019-03-05T22:19:41.058Z,6.20
2019-03-05T22:22:29.355Z,6.20
2019-03-05T22:25:18.463Z,6.30
2019-03-05T22:28:06.696Z,6.30
2019-03-05T22:30:54.774Z,6.20
2019-03-05T22:33:46.828Z,6.20
2019-03-05T22:36:43.724Z,6.20
2019-03-05T22:39:31.404Z,6.20
2019-03-05T22:42:19.174Z,6.20
2019-03-05T22:45:09.341Z,6.10
2019-03-05T22:47:57.122Z,6.10
2019-03-05T22:50:44.936Z,6.10
2019-03-05T22:53:32.424Z,6.10
2019-03-05T22:56:20.114Z,6.10
2019-03-05T22:59:07.744Z,6.10
2019-03-05T23:01:55.299Z,6.10
2019-03-05T23:04:44.695Z,6.10
2019-03-05T23:07:35.648Z,6.10
2019-03-05T23:10:23.389Z,6.10
2019-03-05T23:13:11.836Z,6.10
2019-03-05T23:16:00.146Z,6.10
2019-03-05T23:18:47.807Z,6.10
2019-03-05T23:21:35.242Z,6.10
2019-03-05T23:24:22.979Z,6.00
2019-03-05T23:27:10.770Z,6.00
2019-03-05T23:29:58.772Z,6.00
2019-03-05T23:32:47.999Z,6.00
2019-03-05T23:35:35.945Z,6.00
2019-03-05T23:38:23.848Z,6.00
2019-03-05T23:41:11.799Z,5.90
2019-03-05T23:43:59.523Z,5.90
2019-03-05T23:46:47.715Z,5.90
2019-03-05T23:49:35.744Z,5.90
2019-03-05T23:52:23.681Z,5.80
2019-03-05T23:55:11.529Z,5.70
2019-03-05T23:57:58.949Z,5.60
